Time;durP1;ratioP1;P1;durP2;ratioP2;P2;SDS_P1;SDS_P2;PMS_P1;PMS_P2;Temp;Humidity;BMP_temperature;BMP_pressure;BME280_temperature;BME280_humidity;BME280_pressure;Samples;Min_cycle;Max_cycle;Signal;HPM_P1;HPM_P2
2023/09/18 00:00:56;;;;;;;6.30;4.72;;;17.50;99.90;;;;;;5059983;28;20314;-83
2023/09/18 00:03:24;;;;;;;6.18;4.40;;;17.50;99.90;;;;;;5084683;28;20219;-83
2023/09/18 00:05:51;;;;;;;4.95;4.50;;;17.50;99.90;;;;;;5063557;28;20277;-83
2023/09/18 00:08:19;;;;;;;5.82;5.32;;;17.40;99.90;;;;;;5064409;28;20219;-83
2023/09/18 00:10:48;;;;;;;5.75;5.20;;;17.40;99.90;;;;;;5078405;28;20223;-83
2023/09/18 00:13:16;;;;;;;6.07;5.20;;;17.40;99.90;;;;;;5087870;28;20411;-81
2023/09/18 00:15:44;;;;;;;5.70;5.13;;;17.30;99.90;;;;;;5082496;28;20753;-82
2023/09/18 00:18:11;;;;;;;5.67;5.17;;;17.30;99.90;;;;;;5066352;28;21000;-81
2023/09/18 00:20:38;;;;;;;5.10;4.60;;;17.40;99.90;;;;;;5057542;28;20227;-82
2023/09/18 00:23:05;;;;;;;6.85;5.25;;;17.30;99.90;;;;;;5061020;28;20233;-82
2023/09/18 00:25:32;;;;;;;7.57;4.90;;;17.30;99.90;;;;;;5072852;28;20223;-83
2023/09/18 00:27:59;;;;;;;5.93;5.32;;;17.20;99.90;;;;;;5071274;28;20230;-83
2023/09/18 00:30:27;;;;;;;5.38;4.88;;;17.20;99.90;;;;;;5067406;28;20234;-81
2023/09/18 00:32:54;;;;;;;7.35;5.47;;;17.20;99.90;;;;;;5057785;28;20298;-82
2023/09/18 00:35:22;;;;;;;5.80;5.07;;;17.20;99.90;;;;;;5059386;28;20223;-82
2023/09/18 00:37:49;;;;;;;6.40;5.28;;;17.20;99.90;;;;;;5066217;28;20288;-83
2023/09/18 00:40:16;;;;;;;5.57;5.07;;;17.20;99.90;;;;;;5064072;28;20227;-81
2023/09/18 00:42:43;;;;;;;5.50;5.00;;;17.20;99.90;;;;;;5064869;28;20220;-82
2023/09/18 00:45:11;;;;;;;5.47;4.97;;;17.10;99.90;;;;;;5067930;28;20380;-82
2023/09/18 00:47:40;;;;;;;6.60;5.20;;;17.10;99.90;;;;;;5069640;28;20230;-82
2023/09/18 00:50:11;;;;;;;8.13;5.00;;;17.10;99.90;;;;;;5082834;28;20226;-81
2023/09/18 00:52:39;;;;;;;6.33;5.10;;;17.10;99.90;;;;;;5066426;28;20230;-82
2023/09/18 00:55:08;;;;;;;6.47;5.15;;;17.00;99.90;;;;;;5056898;28;20729;-82
2023/09/18 00:57:35;;;;;;;5.70;5.20;;;17.00;99.90;;;;;;5066242;28;20218;-82
2023/09/18 01:00:04;;;;;;;6.57;5.27;;;17.00;99.90;;;;;;5075451;28;20223;-81
2023/09/18 01:02:31;;;;;;;5.97;5.38;;;17.00;99.90;;;;;;5062972;28;20243;-83
2023/09/18 01:05:00;;;;;;;6.32;5.55;;;17.00;99.90;;;;;;5061017;28;20300;-83
2023/09/18 01:07:28;;;;;;;6.00;5.40;;;17.00;99.90;;;;;;5058548;28;20276;-82
2023/09/18 01:09:55;;;;;;;7.67;5.70;;;16.90;99.90;;;;;;5063943;28;20234;-82
2023/09/18 01:12:28;;;;;;;6.00;5.40;;;16.90;99.90;;;;;;5062945;28;20243;-81
2023/09/18 01:15:03;;;;;;;6.10;5.53;;;16.90;99.90;;;;;;5060606;28;20907;-82
2023/09/18 01:17:31;;;;;;;5.60;5.10;;;16.90;99.90;;;;;;5083320;28;20913;-82
2023/09/18 01:20:00;;;;;;;7.20;5.35;;;16.90;99.90;;;;;;5054688;28;20385;-83
2023/09/18 01:22:32;;;;;;;5.80;5.18;;;16.80;99.90;;;;;;5080883;28;20222;-82
2023/09/18 01:24:59;;;;;;;6.07;5.47;;;16.80;99.90;;;;;;5078010;28;20231;-83
2023/09/18 01:27:26;;;;;;;5.57;5.07;;;16.80;99.90;;;;;;5066054;28;20828;-83
2023/09/18 01:29:54;;;;;;;7.40;5.70;;;16.80;99.90;;;;;;5064379;28;20275;-83
2023/09/18 01:32:26;;;;;;;7.15;5.68;;;16.80;99.90;;;;;;5064945;28;20222;-82
2023/09/18 01:34:55;;;;;;;5.57;5.00;;;16.80;99.90;;;;;;5059021;28;20241;-83
2023/09/18 01:37:26;;;;;;;7.40;5.37;;;16.70;99.90;;;;;;5080233;28;20226;-82
2023/09/18 01:39:57;;;;;;;6.45;5.40;;;16.70;99.90;;;;;;5063608;28;20341;-83
2023/09/18 01:42:25;;;;;;;6.93;5.43;;;16.70;99.90;;;;;;5079183;28;20237;-84
2023/09/18 01:44:54;;;;;;;6.43;5.82;;;16.70;99.90;;;;;;5077129;28;20222;-84
2023/09/18 01:47:23;;;;;;;5.93;5.43;;;16.70;99.90;;;;;;5077085;28;20280;-83
2023/09/18 01:49:50;;;;;;;6.23;5.60;;;16.60;99.90;;;;;;5087705;28;20345;-83
2023/09/18 01:52:17;;;;;;;6.00;5.30;;;16.60;99.90;;;;;;5075503;28;20224;-83
2023/09/18 01:54:44;;;;;;;5.77;5.20;;;16.60;99.90;;;;;;5075027;28;20307;-83
2023/09/18 01:57:13;;;;;;;5.70;5.20;;;16.60;99.90;;;;;;5055748;28;20914;-84
2023/09/18 01:59:41;;;;;;;6.03;5.13;;;16.60;99.90;;;;;;5059313;28;20226;-83
2023/09/18 02:02:09;;;;;;;7.43;5.80;;;16.60;99.90;;;;;;5078445;28;20316;-83
2023/09/18 02:04:36;;;;;;;6.17;5.57;;;16.50;99.90;;;;;;5108952;28;20228;-83
2023/09/18 02:07:04;;;;;;;8.00;5.93;;;16.50;99.90;;;;;;5090168;28;20236;-83
2023/09/18 02:09:31;;;;;;;6.10;5.43;;;16.40;99.90;;;;;;5073393;28;20231;-83
2023/09/18 02:11:58;;;;;;;6.33;5.73;;;16.50;99.90;;;;;;5086578;28;20308;-83
2023/09/18 02:14:26;;;;;;;6.03;5.47;;;16.50;99.90;;;;;;5081309;28;20230;-84
2023/09/18 02:16:53;;;;;;;6.30;5.67;;;16.50;99.90;;;;;;5062015;28;20312;-83
2023/09/18 02:19:20;;;;;;;6.10;5.50;;;16.50;99.90;;;;;;5062555;28;20253;-83
2023/09/18 02:21:47;;;;;;;6.40;5.47;;;16.40;99.90;;;;;;5056209;28;20285;-83
2023/09/18 02:24:14;;;;;;;6.40;5.80;;;16.40;99.90;;;;;;5070781;28;20310;-84
2023/09/18 02:26:41;;;;;;;6.40;5.80;;;16.30;99.90;;;;;;5073857;28;20958;-83
2023/09/18 02:29:11;;;;;;;6.20;5.60;;;16.30;99.90;;;;;;5065493;28;20885;-83
2023/09/18 02:31:39;;;;;;;6.93;6.03;;;16.30;99.90;;;;;;5084522;28;20230;-83
2023/09/18 02:34:07;;;;;;;5.80;5.20;;;16.30;99.90;;;;;;5059605;28;20231;-82
2023/09/18 02:36:34;;;;;;;7.30;6.03;;;16.30;99.90;;;;;;5075784;28;20310;-83
2023/09/18 02:39:00;;;;;;;5.80;5.30;;;16.30;99.90;;;;;;5082558;28;20234;-83
2023/09/18 02:41:27;;;;;;;6.03;5.43;;;16.20;99.90;;;;;;5066895;28;20326;-84
2023/09/18 02:43:54;;;;;;;6.10;5.50;;;16.20;99.90;;;;;;5069985;28;20310;-84
2023/09/18 02:46:21;;;;;;;6.17;5.57;;;16.20;99.90;;;;;;5064737;28;20662;-83
2023/09/18 02:48:49;;;;;;;6.37;5.73;;;16.20;99.90;;;;;;5066828;28;20765;-81
2023/09/18 02:51:16;;;;;;;6.10;5.50;;;16.10;99.90;;;;;;5070726;28;20245;-81
2023/09/18 02:53:43;;;;;;;6.50;5.70;;;16.10;99.90;;;;;;5088190;28;20257;-81
2023/09/18 02:56:10;;;;;;;5.60;5.10;;;16.10;99.90;;;;;;5063578;28;20291;-81
2023/09/18 02:58:38;;;;;;;6.93;5.80;;;16.10;99.90;;;;;;5062969;28;20862;-82
2023/09/18 03:01:05;;;;;;;7.40;5.90;;;16.10;99.90;;;;;;5092537;28;20314;-82
2023/09/18 03:03:34;;;;;;;6.07;5.50;;;16.10;99.90;;;;;;5065414;28;20625;-81
2023/09/18 03:06:03;;;;;;;6.33;5.77;;;16.10;99.90;;;;;;5065295;28;20218;-83
2023/09/18 03:08:30;;;;;;;6.13;5.53;;;16.10;99.90;;;;;;5066516;28;20230;-81
2023/09/18 03:10:57;;;;;;;6.67;6.00;;;16.00;99.90;;;;;;5070298;28;20215;-81
2023/09/18 03:13:27;;;;;;;6.67;5.97;;;16.00;99.90;;;;;;5066520;28;20504;-81
2023/09/18 03:15:54;;;;;;;7.97;6.07;;;16.00;99.90;;;;;;5073400;28;21173;-81
2023/09/18 03:18:21;;;;;;;6.53;5.90;;;16.00;99.90;;;;;;5071490;28;20306;-81
2023/09/18 03:20:48;;;;;;;6.50;5.90;;;16.00;99.90;;;;;;5071442;28;20300;-81
2023/09/18 03:23:16;;;;;;;6.10;5.60;;;16.00;99.90;;;;;;5070665;28;20231;-81
2023/09/18 03:25:43;;;;;;;6.17;5.53;;;16.00;99.90;;;;;;5072369;28;20242;-82
2023/09/18 03:28:10;;;;;;;7.13;6.07;;;16.00;99.90;;;;;;5072639;28;21049;-81
2023/09/18 03:30:37;;;;;;;6.60;6.00;;;15.90;99.90;;;;;;5090510;28;20310;-84
2023/09/18 03:33:05;;;;;;;6.27;5.67;;;15.90;99.90;;;;;;5070605;28;20986;-82
2023/09/18 03:35:32;;;;;;;6.53;5.83;;;15.90;99.90;;;;;;5059589;28;20231;-83
2023/09/18 03:38:00;;;;;;;7.23;6.53;;;15.90;99.90;;;;;;5081312;28;20219;-83
2023/09/18 03:40:29;;;;;;;6.50;5.90;;;15.90;99.90;;;;;;5070880;28;20901;-84
2023/09/18 03:42:56;;;;;;;7.10;6.40;;;15.90;99.90;;;;;;5077679;28;20223;-84
2023/09/18 03:45:23;;;;;;;7.00;6.10;;;15.90;99.90;;;;;;5071158;28;20371;-84
2023/09/18 03:47:51;;;;;;;6.60;5.87;;;15.80;99.90;;;;;;5062530;28;20297;-85
2023/09/18 03:50:18;;;;;;;7.60;6.63;;;15.90;99.90;;;;;;5059397;28;20229;-86
2023/09/18 03:52:45;;;;;;;6.63;5.97;;;15.90;99.90;;;;;;5064385;28;20364;-86
2023/09/18 03:55:12;;;;;;;7.80;6.60;;;15.90;99.90;;;;;;5068927;28;20254;-84
2023/09/18 03:57:43;;;;;;;7.83;6.20;;;15.90;99.90;;;;;;5066423;28;20215;-84
2023/09/18 04:00:11;;;;;;;7.33;6.63;;;15.80;99.90;;;;;;5084183;28;20782;-84
2023/09/18 04:02:40;;;;;;;6.57;5.97;;;15.90;99.90;;;;;;5078091;28;20225;-84
2023/09/18 04:05:09;;;;;;;7.43;6.30;;;15.80;99.90;;;;;;5088847;28;20230;-83
2023/09/18 04:07:36;;;;;;;7.27;6.57;;;15.80;99.90;;;;;;5062321;28;20904;-84
2023/09/18 04:10:03;;;;;;;7.83;6.27;;;15.90;99.90;;;;;;5062591;28;20268;-83
2023/09/18 04:12:30;;;;;;;6.97;6.27;;;15.80;99.90;;;;;;5060173;28;20234;-83
2023/09/18 04:14:58;;;;;;;8.33;6.57;;;15.80;99.90;;;;;;5065237;28;20229;-83
2023/09/18 04:17:25;;;;;;;6.67;5.90;;;15.80;99.90;;;;;;5065377;28;20230;-83
2023/09/18 04:19:54;;;;;;;6.90;6.30;;;15.80;99.90;;;;;;5068478;28;20219;-84
2023/09/18 04:22:21;;;;;;;6.80;6.10;;;15.80;99.90;;;;;;5059771;28;20215;-82
2023/09/18 04:24:48;;;;;;;6.70;6.10;;;15.80;99.90;;;;;;5064104;28;20306;-83
2023/09/18 04:27:15;;;;;;;7.73;6.10;;;15.80;99.90;;;;;;5064199;28;20214;-84
2023/09/18 04:29:42;;;;;;;6.83;6.23;;;15.80;99.90;;;;;;5082448;28;20218;-85
2023/09/18 04:32:10;;;;;;;6.73;6.13;;;15.80;99.90;;;;;;5067235;28;20223;-83
2023/09/18 04:34:37;;;;;;;7.97;5.97;;;15.80;99.90;;;;;;5077523;28;20649;-83
2023/09/18 04:37:04;;;;;;;6.77;5.90;;;15.80;99.90;;;;;;5065743;28;20223;-84
2023/09/18 04:39:33;;;;;;;7.00;6.30;;;15.80;99.90;;;;;;5077515;28;20265;-83
2023/09/18 04:42:04;;;;;;;7.80;6.30;;;15.80;99.90;;;;;;5067374;28;20241;-83
2023/09/18 04:44:31;;;;;;;6.93;6.23;;;15.80;99.90;;;;;;5061975;28;20297;-83
2023/09/18 04:46:58;;;;;;;6.93;6.17;;;15.90;99.90;;;;;;5071554;28;20214;-83
2023/09/18 04:49:28;;;;;;;6.80;6.20;;;15.80;99.90;;;;;;5061543;28;20318;-84
2023/09/18 04:51:55;;;;;;;6.90;6.20;;;15.90;99.90;;;;;;5087319;28;20229;-84
2023/09/18 04:54:23;;;;;;;6.90;6.30;;;15.90;99.90;;;;;;5062358;28;20214;-85
2023/09/18 04:56:49;;;;;;;7.10;6.50;;;15.80;99.90;;;;;;5062016;28;20888;-84
2023/09/18 04:59:16;;;;;;;8.07;6.90;;;15.90;99.90;;;;;;5058130;28;20262;-83
2023/09/18 05:01:44;;;;;;;6.87;6.27;;;15.80;99.90;;;;;;5065960;28;20315;-84
2023/09/18 05:04:10;;;;;;;7.00;6.30;;;15.80;99.90;;;;;;5061106;28;20429;-83
2023/09/18 05:06:40;;;;;;;7.00;6.30;;;15.90;99.90;;;;;;5060699;28;20219;-83
2023/09/18 05:09:07;;;;;;;7.90;6.40;;;15.90;99.90;;;;;;5068373;28;20226;-84
2023/09/18 05:11:34;;;;;;;7.87;6.83;;;15.90;99.90;;;;;;5061022;28;20221;-84
2023/09/18 05:14:00;;;;;;;6.40;5.87;;;15.90;99.90;;;;;;5087705;28;20769;-83
2023/09/18 05:16:28;;;;;;;7.53;6.83;;;15.90;99.90;;;;;;5075259;28;20226;-84
2023/09/18 05:18:55;;;;;;;6.93;6.33;;;15.90;99.90;;;;;;5067851;28;20219;-83
2023/09/18 05:21:24;;;;;;;6.80;6.20;;;15.90;99.90;;;;;;5088531;28;20249;-84
2023/09/18 05:23:53;;;;;;;6.67;6.03;;;15.90;99.90;;;;;;5077610;28;20802;-83
2023/09/18 05:26:24;;;;;;;6.73;6.07;;;15.90;99.90;;;;;;5080294;28;20218;-85
2023/09/18 05:28:51;;;;;;;7.60;6.90;;;15.90;99.90;;;;;;5084471;28;20591;-82
2023/09/18 05:31:18;;;;;;;7.30;6.60;;;16.00;99.90;;;;;;5087095;28;20222;-83
2023/09/18 05:33:44;;;;;;;6.87;6.10;;;16.00;99.90;;;;;;5084368;28;20238;-83
2023/09/18 05:36:13;;;;;;;7.30;6.20;;;16.00;99.90;;;;;;5065057;28;20221;-83
2023/09/18 05:38:40;;;;;;;7.23;6.43;;;16.00;99.90;;;;;;5082716;28;20227;-83
2023/09/18 05:41:09;;;;;;;6.80;6.10;;;16.10;99.90;;;;;;5083500;28;20229;-83
2023/09/18 05:43:36;;;;;;;6.93;6.33;;;16.10;99.90;;;;;;5079836;28;20219;-84
2023/09/18 05:46:03;;;;;;;6.80;6.10;;;16.10;99.90;;;;;;5065957;28;20218;-83
2023/09/18 05:48:31;;;;;;;7.20;6.50;;;16.20;99.90;;;;;;5062273;28;20235;-82
2023/09/18 05:50:58;;;;;;;7.07;6.37;;;16.20;99.90;;;;;;5079583;28;20214;-83
2023/09/18 05:53:25;;;;;;;6.63;6.03;;;16.30;99.90;;;;;;5080766;28;20855;-82
2023/09/18 05:55:52;;;;;;;8.30;6.73;;;16.40;99.90;;;;;;5083033;28;20226;-82
2023/09/18 05:58:24;;;;;;;7.07;6.40;;;16.30;99.90;;;;;;5082265;28;20223;-82
2023/09/18 06:00:51;;;;;;;7.90;6.60;;;16.40;99.90;;;;;;5071537;28;20218;-83
2023/09/18 06:03:19;;;;;;;7.30;6.60;;;16.50;99.90;;;;;;5051699;28;20221;-82
2023/09/18 06:05:46;;;;;;;7.27;6.53;;;16.50;99.90;;;;;;5061741;28;20231;-83
2023/09/18 06:08:13;;;;;;;10.00;6.33;;;16.60;99.90;;;;;;5091043;28;20546;-82
2023/09/18 06:10:40;;;;;;;7.63;6.47;;;16.70;99.90;;;;;;5086138;28;20236;-83
2023/09/18 06:13:06;;;;;;;7.55;6.85;;;16.70;99.90;;;;;;5093940;28;20309;-83
2023/09/18 06:15:35;;;;;;;6.97;6.28;;;16.70;99.90;;;;;;5088260;28;20305;-83
2023/09/18 06:18:01;;;;;;;8.97;6.30;;;16.80;99.90;;;;;;5072325;28;20225;-84
2023/09/18 06:20:28;;;;;;;7.07;6.27;;;16.90;99.90;;;;;;5094671;28;20222;-83
2023/09/18 06:22:55;;;;;;;7.00;6.30;;;17.00;99.90;;;;;;5074920;28;20231;-82
2023/09/18 06:25:21;;;;;;;13.20;6.85;;;17.00;99.90;;;;;;5075492;28;20801;-83
2023/09/18 06:27:48;;;;;;;7.60;6.30;;;17.10;99.90;;;;;;5078297;28;20860;-83
2023/09/18 06:30:15;;;;;;;6.83;6.20;;;17.20;99.90;;;;;;5071046;28;20219;-81
2023/09/18 06:32:44;;;;;;;6.50;5.83;;;17.20;99.90;;;;;;5088596;28;20246;-81
2023/09/18 06:35:11;;;;;;;6.80;6.10;;;17.30;99.90;;;;;;5072624;28;20215;-81
2023/09/18 06:37:37;;;;;;;7.22;6.13;;;17.40;99.90;;;;;;5067439;28;20229;-81
2023/09/18 06:40:05;;;;;;;7.63;6.07;;;17.50;99.90;;;;;;5090050;28;20302;-81
2023/09/18 06:42:32;;;;;;;6.35;5.65;;;17.60;99.90;;;;;;5092440;28;20279;-83
2023/09/18 06:45:01;;;;;;;8.57;6.55;;;17.70;99.90;;;;;;5068062;28;20724;-80
2023/09/18 06:47:28;;;;;;;7.13;5.88;;;17.80;99.90;;;;;;5072272;28;20329;-80
2023/09/18 06:49:56;;;;;;;6.90;5.68;;;17.90;99.90;;;;;;5089287;28;20310;-82
2023/09/18 06:52:22;;;;;;;8.40;5.85;;;17.90;99.90;;;;;;5071218;28;20254;-79
2023/09/18 06:54:49;;;;;;;6.72;5.97;;;18.00;99.90;;;;;;5067192;28;20306;-81
2023/09/18 06:57:16;;;;;;;6.10;5.60;;;18.10;99.90;;;;;;5067027;28;20313;-81
2023/09/18 06:59:42;;;;;;;6.15;5.65;;;18.00;99.90;;;;;;5076880;28;20229;-82
2023/09/18 07:02:09;;;;;;;6.60;5.70;;;18.10;99.90;;;;;;5087455;28;20225;-82
2023/09/18 07:04:36;;;;;;;6.40;5.72;;;18.20;99.90;;;;;;5086970;28;20336;-81
2023/09/18 07:07:05;;;;;;;5.65;5.15;;;18.20;99.90;;;;;;5071358;28;20298;-82
2023/09/18 07:09:31;;;;;;;6.15;5.45;;;18.30;99.90;;;;;;5089220;28;20231;-82
2023/09/18 07:11:58;;;;;;;6.35;5.72;;;18.30;99.90;;;;;;5091761;28;20218;-82
2023/09/18 07:14:25;;;;;;;6.03;5.47;;;18.40;99.90;;;;;;5069121;28;20310;-80
2023/09/18 07:16:51;;;;;;;5.88;5.22;;;18.50;99.90;;;;;;5092366;28;20230;-79
2023/09/18 07:19:18;;;;;;;5.60;4.97;;;18.60;99.90;;;;;;5089750;28;20301;-79
2023/09/18 07:21:45;;;;;;;5.57;5.07;;;18.70;99.90;;;;;;5061921;28;20231;-78
2023/09/18 07:24:16;;;;;;;5.97;5.38;;;18.80;99.90;;;;;;5085195;28;20220;-78
2023/09/18 07:26:46;;;;;;;8.20;5.15;;;19.00;99.90;;;;;;5089349;28;20253;-78
2023/09/18 07:29:13;;;;;;;5.85;5.25;;;19.10;99.90;;;;;;5094336;28;20218;-78
2023/09/18 07:31:40;;;;;;;5.57;5.07;;;19.30;99.90;;;;;;5082641;28;20230;-78
2023/09/18 07:34:06;;;;;;;5.80;5.13;;;19.50;99.90;;;;;;5080525;28;20218;-78
2023/09/18 07:36:33;;;;;;;6.38;5.35;;;19.60;99.90;;;;;;5082122;28;20223;-78
2023/09/18 07:39:00;;;;;;;5.63;5.13;;;19.80;99.90;;;;;;5081262;28;20222;-78
2023/09/18 07:41:28;;;;;;;5.32;4.90;;;19.90;99.90;;;;;;5082367;28;20225;-78
2023/09/18 07:43:54;;;;;;;5.88;5.28;;;20.10;99.90;;;;;;5079790;28;20759;-78
2023/09/18 07:46:21;;;;;;;5.28;4.78;;;20.30;99.90;;;;;;5057172;28;20229;-78
2023/09/18 07:48:48;;;;;;;5.28;4.65;;;20.40;99.90;;;;;;5069529;28;20301;-77
2023/09/18 07:51:16;;;;;;;5.35;4.85;;;20.50;99.90;;;;;;5081985;28;20444;-78
2023/09/18 07:53:43;;;;;;;5.65;5.15;;;20.60;99.90;;;;;;5086572;28;20305;-79
2023/09/18 07:56:10;;;;;;;5.60;5.10;;;20.70;99.90;;;;;;5082506;28;20250;-79
2023/09/18 07:58:39;;;;;;;5.40;4.90;;;20.80;99.90;;;;;;5084208;28;20227;-79
2023/09/18 08:01:06;;;;;;;6.93;4.88;;;20.80;99.90;;;;;;5077472;28;20292;-79
2023/09/18 08:03:33;;;;;;;5.50;5.00;;;20.90;99.90;;;;;;5080942;28;20309;-79
2023/09/18 08:05:59;;;;;;;5.32;4.82;;;20.90;99.90;;;;;;5066950;28;20224;-79
2023/09/18 08:08:26;;;;;;;5.28;4.78;;;21.00;99.90;;;;;;5077505;28;20306;-79
2023/09/18 08:10:54;;;;;;;5.47;4.97;;;21.10;99.90;;;;;;5077534;28;20215;-79
2023/09/18 08:13:20;;;;;;;6.63;5.15;;;21.20;99.90;;;;;;5082991;28;20223;-79
2023/09/18 08:15:49;;;;;;;4.80;4.40;;;21.20;99.90;;;;;;5080932;28;20313;-79
2023/09/18 08:18:15;;;;;;;5.55;4.63;;;21.30;99.90;;;;;;5081850;28;20311;-79
2023/09/18 08:20:43;;;;;;;5.32;4.55;;;21.40;99.90;;;;;;5081142;28;20621;-79
2023/09/18 08:23:10;;;;;;;4.93;4.43;;;21.50;99.90;;;;;;5078486;28;20218;-79
2023/09/18 08:25:37;;;;;;;5.05;4.60;;;21.60;99.90;;;;;;5077528;28;20230;-79
2023/09/18 08:28:04;;;;;;;5.47;4.57;;;21.70;99.90;;;;;;5061617;28;20246;-79
2023/09/18 08:30:31;;;;;;;6.25;4.07;;;21.80;99.90;;;;;;5080159;28;20222;-79
2023/09/18 08:32:59;;;;;;;5.05;4.53;;;21.90;99.90;;;;;;5062426;28;20321;-79
2023/09/18 08:35:29;;;;;;;4.80;4.30;;;22.00;99.90;;;;;;5071409;28;20756;-79
2023/09/18 08:37:56;;;;;;;5.15;4.65;;;22.00;99.90;;;;;;5074086;28;20229;-79
2023/09/18 08:40:25;;;;;;;4.70;4.30;;;22.00;99.90;;;;;;5073606;28;20292;-79
2023/09/18 08:42:54;;;;;;;5.10;4.60;;;22.00;99.90;;;;;;5077189;28;20218;-79
2023/09/18 08:45:24;;;;;;;4.22;3.83;;;21.90;99.90;;;;;;5076477;28;20686;-79
2023/09/18 08:47:52;;;;;;;4.22;3.92;;;21.90;99.90;;;;;;5076307;28;20677;-79
2023/09/18 08:50:21;;;;;;;7.78;4.15;;;21.90;99.90;;;;;;5058839;28;20736;-79
2023/09/18 08:52:48;;;;;;;4.55;4.13;;;21.80;99.90;;;;;;5062062;28;20227;-79
2023/09/18 08:55:15;;;;;;;4.38;3.97;;;21.70;99.90;;;;;;5080755;28;20218;-79
2023/09/18 08:57:43;;;;;;;4.63;3.90;;;21.70;99.90;;;;;;5079777;28;20218;-79
2023/09/18 09:00:16;;;;;;;4.80;4.40;;;21.70;99.90;;;;;;5082802;28;20222;-79
2023/09/18 09:02:43;;;;;;;4.32;3.90;;;21.60;99.90;;;;;;5063410;28;20277;-80
2023/09/18 09:05:10;;;;;;;5.88;4.30;;;21.50;99.90;;;;;;5057587;28;20233;-80
2023/09/18 09:07:38;;;;;;;4.90;4.30;;;21.50;99.90;;;;;;5081627;28;20771;-80
2023/09/18 09:10:05;;;;;;;7.03;4.07;;;21.40;99.90;;;;;;5081157;28;20230;-80
2023/09/18 09:12:55;;;;;;;4.95;4.55;;;21.30;99.90;;;;;;5081271;28;20280;-80
2023/09/18 09:15:23;;;;;;;6.13;4.18;;;21.30;99.90;;;;;;5057891;28;20239;-80
2023/09/18 09:17:50;;;;;;;4.85;4.22;;;21.30;99.90;;;;;;5079873;28;20217;-80
2023/09/18 09:20:18;;;;;;;5.78;4.80;;;21.40;99.90;;;;;;5073112;28;20222;-79
2023/09/18 09:22:46;;;;;;;4.53;4.07;;;21.40;99.90;;;;;;5062094;28;20226;-80
2023/09/18 09:25:25;;;;;;;5.05;4.53;;;21.40;99.90;;;;;;5063900;28;20254;-79
2023/09/18 09:27:53;;;;;;;5.78;4.57;;;21.50;99.90;;;;;;5081429;28;20219;-80
2023/09/18 09:30:21;;;;;;;5.78;4.40;;;21.50;99.90;;;;;;5062375;28;20237;-80
2023/09/18 09:32:50;;;;;;;6.88;4.70;;;21.60;99.90;;;;;;5079437;28;20223;-80
2023/09/18 09:35:21;;;;;;;4.70;4.18;;;21.60;99.90;;;;;;5077500;28;20219;-79
2023/09/18 09:37:51;;;;;;;5.30;4.07;;;21.70;99.90;;;;;;5058582;28;20590;-80
2023/09/18 09:40:21;;;;;;;6.45;4.80;;;21.90;99.90;;;;;;5067355;28;20671;-80
2023/09/18 09:42:48;;;;;;;5.43;4.30;;;21.90;99.90;;;;;;5076807;28;20255;-80
2023/09/18 09:45:17;;;;;;;4.82;4.32;;;22.00;99.90;;;;;;5084307;28;20226;-80
2023/09/18 09:47:44;;;;;;;4.60;4.18;;;22.00;99.90;;;;;;5063321;28;20222;-79
2023/09/18 09:50:13;;;;;;;4.80;4.40;;;22.00;99.90;;;;;;5079664;28;20303;-80
2023/09/18 09:52:44;;;;;;;4.78;4.32;;;22.00;99.90;;;;;;5064950;28;20226;-80
2023/09/18 09:55:25;;;;;;;5.70;5.13;;;22.00;99.90;;;;;;5082011;28;20219;-80
2023/09/18 09:57:54;;;;;;;7.15;4.68;;;21.90;99.90;;;;;;5083615;28;20222;-80
2023/09/18 10:00:32;;;;;;;4.78;4.20;;;21.90;99.90;;;;;;5059596;28;20716;-79
2023/09/18 10:03:04;;;;;;;4.82;4.22;;;21.90;99.90;;;;;;5063541;28;20233;-80
2023/09/18 10:05:34;;;;;;;8.05;4.93;;;21.80;99.90;;;;;;5056813;28;20280;-80
2023/09/18 10:08:05;;;;;;;6.43;4.07;;;21.80;99.90;;;;;;5081983;28;20214;-80
2023/09/18 10:10:36;;;;;;;5.65;4.25;;;21.90;99.90;;;;;;5082143;28;20314;-80
2023/09/18 10:13:09;;;;;;;4.85;3.70;;;21.80;99.90;;;;;;5080727;28;20253;-80
2023/09/18 10:15:39;;;;;;;4.60;3.78;;;21.90;99.90;;;;;;5083060;28;20282;-80
2023/09/18 10:18:13;;;;;;;8.40;4.30;;;22.00;99.90;;;;;;5087511;28;20227;-80
2023/09/18 10:20:43;;;;;;;7.32;4.63;;;22.00;99.90;;;;;;5084680;28;20245;-80
2023/09/18 10:23:23;;;;;;;4.75;4.10;;;22.00;99.90;;;;;;5064724;28;20214;-80
2023/09/18 10:25:54;;;;;;;6.40;4.20;;;22.00;99.90;;;;;;5081848;28;20317;-80
2023/09/18 10:28:23;;;;;;;5.25;4.30;;;22.00;99.90;;;;;;5077584;28;20222;-80
2023/09/18 10:30:51;;;;;;;5.30;4.05;;;22.00;99.90;;;;;;5062301;28;20218;-80
2023/09/18 10:33:18;;;;;;;4.68;4.10;;;22.00;99.90;;;;;;5082399;28;20593;-80
2023/09/18 10:35:47;;;;;;;4.82;4.00;;;22.00;99.90;;;;;;5065936;28;20274;-80
2023/09/18 10:38:25;;;;;;;4.72;4.32;;;22.00;99.90;;;;;;5062312;28;20735;-80
2023/09/18 10:40:54;;;;;;;4.20;3.83;;;22.00;99.90;;;;;;5067494;28;20218;-80
2023/09/18 10:43:21;;;;;;;6.97;4.55;;;22.10;99.90;;;;;;5063527;28;20314;-80
2023/09/18 10:45:51;;;;;;;6.93;4.60;;;22.20;99.90;;;;;;5087131;28;20222;-80
2023/09/18 10:48:19;;;;;;;6.07;4.93;;;22.20;99.90;;;;;;5076117;28;20226;-81
2023/09/18 10:50:46;;;;;;;4.95;4.05;;;22.40;99.90;;;;;;5059769;28;21202;-80
2023/09/18 10:53:13;;;;;;;5.70;3.83;;;22.50;99.90;;;;;;5081802;28;20321;-80
2023/09/18 10:55:43;;;;;;;6.05;3.90;;;22.60;99.90;;;;;;5086436;28;20212;-80
2023/09/18 10:58:11;;;;;;;4.82;3.75;;;22.70;99.90;;;;;;5064990;28;20221;-80
2023/09/18 11:00:37;;;;;;;5.45;4.00;;;22.80;99.90;;;;;;5085848;28;20288;-80
2023/09/18 11:03:13;;;;;;;4.50;4.03;;;22.80;99.90;;;;;;5081797;28;20250;-80
2023/09/18 11:05:40;;;;;;;5.78;4.50;;;22.80;99.90;;;;;;5080726;28;20226;-80
2023/09/18 11:08:29;;;;;;;6.53;4.15;;;22.80;99.90;;;;;;5068982;28;20231;-80
2023/09/18 11:11:04;;;;;;;5.50;3.72;;;22.80;99.90;;;;;;5070040;28;20952;-80
2023/09/18 11:13:35;;;;;;;5.40;4.25;;;22.90;99.90;;;;;;5063311;28;20240;-80
2023/09/18 11:16:13;;;;;;;5.35;4.20;;;23.00;99.90;;;;;;5084347;28;20219;-81
2023/09/18 11:18:40;;;;;;;6.68;4.15;;;23.10;99.90;;;;;;5084431;28;20318;-82
2023/09/18 11:21:11;;;;;;;8.68;4.13;;;23.20;99.90;;;;;;5088080;28;20708;-80
2023/09/18 11:23:42;;;;;;;7.93;4.00;;;23.30;99.90;;;;;;5074089;28;20234;-82
2023/09/18 11:26:09;;;;;;;4.60;3.80;;;23.40;99.90;;;;;;5078472;28;20225;-81
2023/09/18 11:28:38;;;;;;;4.13;3.72;;;23.50;99.90;;;;;;5073450;28;20711;-81
2023/09/18 11:31:05;;;;;;;7.70;4.05;;;23.60;99.90;;;;;;5075215;28;20233;-81
2023/09/18 11:33:36;;;;;;;5.70;4.20;;;23.70;99.90;;;;;;5094388;28;20314;-81
2023/09/18 11:36:06;;;;;;;5.70;4.10;;;24.00;99.90;;;;;;5094164;28;20275;-81
2023/09/18 11:38:35;;;;;;;6.50;4.10;;;24.20;99.90;;;;;;5094535;28;20230;-81
2023/09/18 11:41:17;;;;;;;6.05;3.70;;;24.40;99.90;;;;;;5087114;28;20232;-81
2023/09/18 11:43:45;;;;;;;5.03;4.07;;;24.60;99.90;;;;;;5094751;28;20228;-81
2023/09/18 11:46:13;;;;;;;4.28;3.38;;;24.80;99.90;;;;;;5090359;28;20245;-81
2023/09/18 11:48:42;;;;;;;7.15;3.80;;;24.80;99.90;;;;;;5074601;28;20775;-81
2023/09/18 11:51:11;;;;;;;4.50;3.88;;;24.70;99.90;;;;;;5063803;28;20286;-81
2023/09/18 11:53:43;;;;;;;8.18;4.07;;;24.60;99.90;;;;;;5084636;28;20704;-80
2023/09/18 11:56:14;;;;;;;5.38;3.47;;;24.60;99.90;;;;;;5084415;28;20214;-81
2023/09/18 11:58:48;;;;;;;5.47;3.42;;;24.50;99.90;;;;;;5075257;28;20243;-81
2023/09/18 12:01:15;;;;;;;5.63;3.30;;;24.50;99.90;;;;;;5081817;28;20230;-80
2023/09/18 12:03:42;;;;;;;4.63;3.63;;;24.40;99.90;;;;;;5088573;28;20235;-81
2023/09/18 12:06:12;;;;;;;4.72;3.00;;;24.40;99.90;;;;;;5087668;28;20312;-81
2023/09/18 12:08:40;;;;;;;6.10;3.17;;;24.40;99.90;;;;;;5088946;28;20230;-80
2023/09/18 12:11:07;;;;;;;8.20;3.58;;;24.30;99.90;;;;;;5089196;28;20282;-80
2023/09/18 12:13:34;;;;;;;5.97;3.63;;;24.30;99.90;;;;;;5092653;28;20241;-81
2023/09/18 12:16:05;;;;;;;5.07;3.38;;;24.30;99.90;;;;;;5067418;28;20237;-80
2023/09/18 12:18:34;;;;;;;9.55;3.70;;;24.20;99.90;;;;;;5071460;28;20252;-80
2023/09/18 12:21:04;;;;;;;6.18;3.08;;;24.20;99.90;;;;;;5075346;28;20215;-81
2023/09/18 12:23:38;;;;;;;7.20;2.90;;;24.10;99.90;;;;;;5064619;28;20677;-80
2023/09/18 12:26:06;;;;;;;6.38;3.10;;;24.00;99.90;;;;;;5068550;28;20265;-80
2023/09/18 12:28:34;;;;;;;4.65;2.92;;;24.00;99.90;;;;;;5089024;28;20235;-80
2023/09/18 12:31:04;;;;;;;5.28;2.97;;;24.00;99.90;;;;;;5066870;28;20697;-81
2023/09/18 12:33:35;;;;;;;7.63;3.35;;;23.90;99.90;;;;;;5087833;28;20230;-81
2023/09/18 12:36:02;;;;;;;6.95;2.88;;;24.00;99.90;;;;;;5091268;28;20242;-81
2023/09/18 12:38:30;;;;;;;4.78;2.28;;;24.00;99.90;;;;;;5093167;28;20231;-80
2023/09/18 12:41:05;;;;;;;7.35;2.92;;;24.10;99.90;;;;;;5093526;28;20226;-80
2023/09/18 12:43:36;;;;;;;8.57;2.50;;;24.20;99.90;;;;;;5078750;28;20232;-81
2023/09/18 12:46:06;;;;;;;6.53;2.50;;;24.30;99.90;;;;;;5068653;28;20215;-81
2023/09/18 12:48:37;;;;;;;4.80;2.50;;;24.50;99.90;;;;;;5085966;28;20491;-81
2023/09/18 12:51:04;;;;;;;6.47;2.38;;;24.60;99.90;;;;;;5067100;28;20222;-81
2023/09/18 12:53:31;;;;;;;5.95;2.30;;;24.70;99.90;;;;;;5085782;28;20218;-81